Time;durP1;ratioP1;P1;durP2;ratioP2;P2;SDS_P1;SDS_P2;PMS_P1;PMS_P2;Temp;Humidity;BMP_temperature;BMP_pressure;BME280_temperature;BME280_humidity;BME280_pressure;Samples;Min_cycle;Max_cycle;Signal;HPM_P1;HPM_P2
2022/08/20 00:00:30;;;;;;;11.07;6.32;;;20.20;99.90;;;;;;5073217;28;20036;-59
2022/08/20 00:02:59;;;;;;;11.95;6.70;;;20.20;99.90;;;;;;5064160;28;20074;-59
2022/08/20 00:05:36;;;;;;;9.65;6.20;;;20.10;99.90;;;;;;5072999;28;20075;-59
2022/08/20 00:08:03;;;;;;;12.82;6.88;;;20.00;99.90;;;;;;5072710;28;20048;-60
2022/08/20 00:10:31;;;;;;;10.13;6.57;;;19.90;99.90;;;;;;5072746;28;20052;-59
2022/08/20 00:12:57;;;;;;;9.82;6.25;;;19.90;99.90;;;;;;5062294;28;20450;-60
2022/08/20 00:15:28;;;;;;;12.93;7.10;;;20.00;99.90;;;;;;5071419;28;20040;-59
2022/08/20 00:17:55;;;;;;;12.52;6.72;;;20.00;99.90;;;;;;5061139;28;20363;-60
2022/08/20 00:20:24;;;;;;;10.10;5.95;;;19.90;99.90;;;;;;5072743;28;20062;-59
2022/08/20 00:22:49;;;;;;;9.95;6.07;;;19.90;99.90;;;;;;5059587;28;20048;-59
2022/08/20 00:25:16;;;;;;;11.10;6.05;;;19.80;99.90;;;;;;5072074;28;20056;-59
2022/08/20 00:27:42;;;;;;;12.30;6.05;;;19.70;99.90;;;;;;5072201;28;20041;-59
2022/08/20 00:30:10;;;;;;;12.60;7.18;;;19.70;99.90;;;;;;5072619;28;20101;-59
2022/08/20 00:32:44;;;;;;;14.38;6.18;;;19.80;99.90;;;;;;5068765;28;20299;-60
2022/08/20 00:35:10;;;;;;;11.73;6.00;;;19.70;99.90;;;;;;5071229;28;20044;-59
2022/08/20 00:37:36;;;;;;;9.77;5.90;;;19.70;99.90;;;;;;5072066;28;20397;-60
2022/08/20 00:40:04;;;;;;;11.55;6.22;;;19.70;99.90;;;;;;5071324;28;20449;-57
2022/08/20 00:42:29;;;;;;;11.35;6.70;;;19.80;99.90;;;;;;5056302;28;20063;-59
2022/08/20 00:44:55;;;;;;;11.40;6.75;;;19.80;99.90;;;;;;5068749;28;20449;-60
2022/08/20 00:47:21;;;;;;;11.75;7.15;;;19.80;99.90;;;;;;5071823;28;20174;-59
2022/08/20 00:49:46;;;;;;;12.00;7.13;;;19.80;99.90;;;;;;5071752;28;20079;-59
2022/08/20 00:52:18;;;;;;;10.88;7.03;;;19.80;99.90;;;;;;5064464;28;20040;-60
2022/08/20 00:54:56;;;;;;;10.68;6.68;;;19.80;99.90;;;;;;5071648;28;20103;-59
2022/08/20 00:57:33;;;;;;;10.23;6.82;;;19.70;99.90;;;;;;5072435;28;20040;-60
2022/08/20 01:00:02;;;;;;;11.20;7.20;;;19.70;99.90;;;;;;5071883;28;20068;-59
2022/08/20 01:02:30;;;;;;;12.88;8.00;;;19.70;99.90;;;;;;5063468;28;20079;-61
2022/08/20 01:04:56;;;;;;;12.35;7.40;;;19.70;99.90;;;;;;5070807;28;20044;-59
2022/08/20 01:07:31;;;;;;;12.52;7.65;;;19.70;99.90;;;;;;5071625;28;20036;-59
2022/08/20 01:09:58;;;;;;;13.27;7.43;;;19.70;99.90;;;;;;5071981;28;20351;-59
2022/08/20 01:12:24;;;;;;;13.15;7.03;;;19.60;99.90;;;;;;5061721;28;20036;-60
2022/08/20 01:14:50;;;;;;;15.75;7.30;;;19.60;99.90;;;;;;5071864;28;20028;-59
2022/08/20 01:17:21;;;;;;;16.17;7.57;;;19.60;99.90;;;;;;5071598;28;20473;-60
2022/08/20 01:20:00;;;;;;;10.40;6.90;;;19.60;99.90;;;;;;5071773;28;20355;-60
2022/08/20 01:25:59;;;;;;;14.57;7.70;;;19.50;99.90;;;;;;5071184;28;20056;-59
2022/08/20 01:28:56;;;;;;;12.65;7.80;;;19.50;99.90;;;;;;5071416;28;20059;-59
2022/08/20 01:31:24;;;;;;;12.43;7.03;;;19.50;99.90;;;;;;5064983;28;20045;-59
2022/08/20 01:33:52;;;;;;;16.95;8.02;;;19.50;99.90;;;;;;5050769;28;20037;-60
2022/08/20 01:36:23;;;;;;;11.60;7.60;;;19.40;99.90;;;;;;5064459;28;20051;-60
2022/08/20 01:38:49;;;;;;;13.98;6.57;;;19.40;99.90;;;;;;5059753;28;20450;-59
2022/08/20 01:41:21;;;;;;;13.55;7.30;;;19.30;99.90;;;;;;5066513;28;20098;-59
2022/08/20 01:44:00;;;;;;;10.23;7.18;;;19.30;99.90;;;;;;5058159;28;20170;-59
2022/08/20 01:46:37;;;;;;;15.57;7.97;;;19.30;99.90;;;;;;5069076;28;20449;-59
2022/08/20 01:49:17;;;;;;;9.68;7.00;;;19.30;99.90;;;;;;5060045;28;20040;-59
2022/08/20 01:51:43;;;;;;;14.63;7.00;;;19.30;99.90;;;;;;5064800;28;20044;-59
2022/08/20 01:54:09;;;;;;;11.80;7.10;;;19.30;99.90;;;;;;5070855;28;20032;-59
2022/08/20 01:56:48;;;;;;;14.30;7.63;;;19.20;99.90;;;;;;5070845;28;20090;-59
2022/08/20 01:59:14;;;;;;;10.35;7.13;;;19.20;99.90;;;;;;5071318;28;20036;-59
2022/08/20 02:01:39;;;;;;;15.60;7.75;;;19.20;99.90;;;;;;5063509;28;20029;-59
2022/08/20 02:04:09;;;;;;;12.88;7.03;;;19.20;99.90;;;;;;5070764;28;20425;-59
2022/08/20 02:06:42;;;;;;;13.32;6.80;;;19.20;99.90;;;;;;5070101;28;20068;-59
2022/08/20 02:09:09;;;;;;;12.73;7.03;;;19.20;99.90;;;;;;5071059;28;20051;-59
2022/08/20 02:11:36;;;;;;;9.75;6.82;;;19.20;99.90;;;;;;5058674;28;20029;-57
2022/08/20 02:14:06;;;;;;;12.43;7.28;;;19.20;99.90;;;;;;5068903;28;20058;-57
2022/08/20 02:16:35;;;;;;;10.88;6.55;;;19.20;99.90;;;;;;5071400;28;20428;-57
2022/08/20 02:19:11;;;;;;;13.70;6.97;;;19.20;99.90;;;;;;5070926;28;20036;-59
2022/08/20 02:21:41;;;;;;;13.68;7.32;;;19.20;99.90;;;;;;5063520;28;20369;-59
2022/08/20 02:24:08;;;;;;;12.98;6.88;;;19.20;99.90;;;;;;5067386;28;20041;-59
2022/08/20 02:26:36;;;;;;;10.13;5.88;;;19.20;99.90;;;;;;5070864;28;20120;-59
2022/08/20 02:29:08;;;;;;;15.07;6.65;;;19.20;99.90;;;;;;5070843;28;20098;-59
2022/08/20 02:31:35;;;;;;;14.23;6.57;;;19.20;99.90;;;;;;5056565;28;20392;-59
2022/08/20 02:34:01;;;;;;;12.60;6.30;;;19.20;99.90;;;;;;5070248;28;20062;-60
2022/08/20 02:36:27;;;;;;;10.70;5.82;;;19.20;99.90;;;;;;5069666;28;20063;-59
2022/08/20 02:38:52;;;;;;;10.82;6.20;;;19.20;99.90;;;;;;5071136;28;20025;-60
2022/08/20 02:41:20;;;;;;;11.13;6.20;;;19.10;99.90;;;;;;5065529;28;20043;-59
2022/08/20 02:43:47;;;;;;;11.23;5.97;;;19.20;99.90;;;;;;5070380;28;20350;-57
2022/08/20 02:46:14;;;;;;;10.52;5.97;;;19.10;99.90;;;;;;5070754;28;20040;-59
2022/08/20 02:48:41;;;;;;;13.27;6.53;;;19.10;99.90;;;;;;5070545;28;20157;-60
2022/08/20 02:51:07;;;;;;;13.90;5.88;;;19.00;99.90;;;;;;5067445;28;20507;-59
2022/08/20 02:53:36;;;;;;;11.85;6.13;;;19.00;99.90;;;;;;5067455;28;20360;-59
2022/08/20 02:56:04;;;;;;;13.02;6.50;;;19.00;99.90;;;;;;5070707;28;20036;-59
2022/08/20 02:58:30;;;;;;;12.50;6.03;;;18.90;99.90;;;;;;5067735;28;20055;-60
2022/08/20 03:00:57;;;;;;;11.35;5.68;;;18.90;99.90;;;;;;5058015;28;20036;-57
2022/08/20 03:03:23;;;;;;;12.57;6.38;;;18.90;99.90;;;;;;5066172;28;20443;-59
2022/08/20 03:05:51;;;;;;;11.13;6.80;;;18.90;99.90;;;;;;5073861;28;20115;-59
2022/08/20 03:08:17;;;;;;;13.18;6.72;;;18.90;99.90;;;;;;5073637;28;20479;-60
2022/08/20 03:10:46;;;;;;;11.80;5.72;;;18.90;99.90;;;;;;5073989;28;20115;-59
2022/08/20 03:13:13;;;;;;;13.20;6.25;;;19.00;99.90;;;;;;5064624;28;20456;-59
2022/08/20 03:15:41;;;;;;;12.48;6.03;;;18.90;99.90;;;;;;5059707;28;20357;-59
2022/08/20 03:18:07;;;;;;;11.13;6.50;;;18.90;99.90;;;;;;5073949;28;20055;-59
2022/08/20 03:20:34;;;;;;;14.82;6.78;;;18.90;99.90;;;;;;5073782;28;20122;-59
2022/08/20 03:23:00;;;;;;;14.02;5.55;;;19.00;99.90;;;;;;5062749;28;20460;-59
2022/08/20 03:25:26;;;;;;;14.88;6.30;;;19.00;99.90;;;;;;5073309;28;20065;-59
2022/08/20 03:27:52;;;;;;;11.23;5.57;;;19.00;99.90;;;;;;5073584;28;20097;-59
2022/08/20 03:30:18;;;;;;;10.35;5.65;;;19.00;99.90;;;;;;5073656;28;20517;-59
2022/08/20 03:32:45;;;;;;;11.95;5.95;;;19.10;99.90;;;;;;5071378;28;20120;-59
2022/08/20 03:35:14;;;;;;;12.35;5.75;;;19.10;99.90;;;;;;5073688;28;20039;-60
2022/08/20 03:37:40;;;;;;;12.02;6.05;;;19.10;99.90;;;;;;5073221;28;20537;-59
2022/08/20 03:40:10;;;;;;;11.73;5.75;;;19.10;99.90;;;;;;5073586;28;20383;-59
2022/08/20 03:42:38;;;;;;;9.52;5.40;;;19.10;99.90;;;;;;5069385;28;20170;-60
2022/08/20 03:45:04;;;;;;;10.80;5.10;;;19.00;99.90;;;;;;5073114;28;20423;-60
2022/08/20 03:47:29;;;;;;;9.63;5.45;;;19.00;99.90;;;;;;5073313;28;20327;-59
2022/08/20 03:50:00;;;;;;;10.20;6.20;;;19.00;99.90;;;;;;5073394;28;20479;-59
2022/08/20 03:52:26;;;;;;;8.75;5.50;;;19.00;99.90;;;;;;5067980;28;20041;-60
2022/08/20 03:54:51;;;;;;;11.85;6.07;;;19.00;99.90;;;;;;5073249;28;20110;-60
2022/08/20 03:57:17;;;;;;;11.32;6.18;;;18.90;99.90;;;;;;5073297;28;20052;-59
2022/08/20 03:59:43;;;;;;;12.15;5.50;;;18.80;99.90;;;;;;5073137;28;20041;-60
2022/08/20 04:02:10;;;;;;;8.93;5.35;;;18.80;99.90;;;;;;5065055;28;20040;-59
2022/08/20 04:04:37;;;;;;;12.02;5.90;;;18.70;99.90;;;;;;5073013;28;20122;-59
2022/08/20 04:07:14;;;;;;;13.15;6.15;;;18.80;99.90;;;;;;5071501;28;20049;-59
2022/08/20 04:09:40;;;;;;;12.55;5.55;;;18.80;99.90;;;;;;5072864;28;20667;-60
2022/08/20 04:12:07;;;;;;;9.95;5.70;;;18.80;99.90;;;;;;5058036;28;20123;-59
2022/08/20 04:14:35;;;;;;;15.63;6.30;;;18.70;99.90;;;;;;5071499;28;20106;-61
2022/08/20 04:17:05;;;;;;;11.45;5.75;;;18.70;99.90;;;;;;5071491;28;20055;-60
2022/08/20 04:19:32;;;;;;;13.30;6.10;;;18.70;99.90;;;;;;5072500;28;20428;-59
2022/08/20 04:21:58;;;;;;;8.43;5.78;;;18.60;99.90;;;;;;5063411;28;20051;-61
2022/08/20 04:24:26;;;;;;;11.88;6.15;;;18.60;99.90;;;;;;5071586;28;20418;-60
2022/08/20 04:26:52;;;;;;;10.07;5.53;;;18.60;99.90;;;;;;5064877;28;20044;-60
2022/08/20 04:29:18;;;;;;;12.90;6.45;;;18.60;99.90;;;;;;5066457;28;20106;-59
2022/08/20 04:31:43;;;;;;;12.50;6.07;;;18.60;99.90;;;;;;5070897;28;20032;-59
2022/08/20 04:34:09;;;;;;;14.45;6.70;;;18.50;99.90;;;;;;5072142;28;20054;-60
2022/08/20 04:36:35;;;;;;;14.07;6.75;;;18.50;99.90;;;;;;5072207;28;20071;-60
2022/08/20 04:39:01;;;;;;;12.32;6.88;;;18.50;99.90;;;;;;5072304;28;20047;-59
2022/08/20 04:41:26;;;;;;;15.23;7.20;;;18.40;99.90;;;;;;5058042;28;20784;-59
2022/08/20 04:43:54;;;;;;;12.85;6.65;;;18.30;99.90;;;;;;5072127;28;20059;-59
2022/08/20 04:46:22;;;;;;;11.25;5.95;;;18.40;99.90;;;;;;5071218;28;20067;-59
2022/08/20 04:48:48;;;;;;;11.65;5.93;;;18.40;99.90;;;;;;5072494;28;20041;-59
2022/08/20 04:51:13;;;;;;;11.63;6.05;;;18.30;99.90;;;;;;5068895;28;20046;-59
2022/08/20 04:53:40;;;;;;;14.07;6.43;;;18.30;99.90;;;;;;5069787;28;20037;-59
2022/08/20 04:56:06;;;;;;;13.25;6.15;;;18.30;99.90;;;;;;5072175;28;20029;-59
2022/08/20 04:58:37;;;;;;;11.30;5.75;;;18.30;99.90;;;;;;5071839;28;20115;-59
2022/08/20 05:01:12;;;;;;;9.15;5.65;;;18.40;99.90;;;;;;5070708;28;20037;-59
2022/08/20 05:03:38;;;;;;;9.02;5.68;;;18.40;99.90;;;;;;5067924;28;20040;-60
2022/08/20 05:06:06;;;;;;;11.88;6.03;;;18.40;99.90;;;;;;5071430;28;20496;-60
2022/08/20 05:08:32;;;;;;;10.07;5.50;;;18.40;99.90;;;;;;5070614;28;20051;-59
2022/08/20 05:10:59;;;;;;;11.77;5.75;;;18.40;99.90;;;;;;5058319;28;20098;-59
2022/08/20 05:13:26;;;;;;;12.55;5.00;;;18.50;99.90;;;;;;5063974;28;20029;-59
2022/08/20 05:15:52;;;;;;;11.00;5.28;;;18.50;99.90;;;;;;5066407;28;20033;-61
2022/08/20 05:18:21;;;;;;;11.73;4.85;;;18.60;99.90;;;;;;5063069;28;20083;-59
2022/08/20 05:20:47;;;;;;;10.60;5.05;;;18.60;99.90;;;;;;5071619;28;20135;-59
2022/08/20 05:23:15;;;;;;;11.50;5.10;;;18.60;99.90;;;;;;5061921;28;20439;-59
2022/08/20 05:25:43;;;;;;;12.50;5.30;;;18.60;99.90;;;;;;5070280;28;20432;-58
2022/08/20 05:28:16;;;;;;;11.60;5.07;;;18.70;99.90;;;;;;5071424;28;20044;-57
2022/08/20 05:30:44;;;;;;;12.82;5.18;;;18.80;99.90;;;;;;5071583;28;20139;-58
2022/08/20 05:33:12;;;;;;;8.55;4.45;;;19.00;99.90;;;;;;5056315;28;20461;-57
2022/08/20 05:35:38;;;;;;;13.07;4.60;;;19.20;99.90;;;;;;5071487;28;20029;-59
2022/08/20 05:38:06;;;;;;;10.60;3.58;;;19.20;99.90;;;;;;5070028;28;20515;-59
2022/08/20 05:40:33;;;;;;;9.52;3.63;;;19.30;99.90;;;;;;5070338;28;20060;-58
2022/08/20 05:42:59;;;;;;;11.82;3.53;;;19.50;99.90;;;;;;5068650;28;20063;-58
2022/08/20 05:45:25;;;;;;;8.88;2.97;;;19.70;99.90;;;;;;5070332;28;20485;-58
2022/08/20 05:47:50;;;;;;;5.70;2.40;;;20.10;99.90;;;;;;5071452;28;20042;-58
2022/08/20 05:50:17;;;;;;;8.68;2.70;;;20.40;99.90;;;;;;5071422;28;20104;-58
2022/08/20 05:52:44;;;;;;;11.07;3.22;;;20.40;99.90;;;;;;5066773;28;20041;-59
2022/08/20 05:55:12;;;;;;;7.22;2.78;;;20.60;99.90;;;;;;5071308;28;20072;-58
2022/08/20 05:57:38;;;;;;;6.15;2.55;;;21.10;99.90;;;;;;5071402;28;20044;-59
2022/08/20 06:00:09;;;;;;;7.60;2.42;;;21.70;99.90;;;;;;5069880;28;20045;-59
2022/08/20 06:05:22;;;;;;;9.18;2.80;;;22.00;99.90;;;;;;5071231;28;20057;-59
2022/08/20 06:07:49;;;;;;;10.80;3.00;;;21.80;99.90;;;;;;5071021;28;20389;-60
2022/08/20 06:10:15;;;;;;;7.13;2.63;;;21.60;99.90;;;;;;5070900;28;20365;-59
2022/08/20 06:12:44;;;;;;;8.77;2.95;;;21.70;99.90;;;;;;5062365;28;20438;-59
2022/08/20 06:15:11;;;;;;;7.35;2.90;;;22.10;99.90;;;;;;5069912;28;20111;-58
2022/08/20 06:17:37;;;;;;;7.38;2.95;;;22.60;99.90;;;;;;5065278;28;20116;-59
2022/08/20 06:20:06;;;;;;;8.32;2.80;;;22.80;99.90;;;;;;5062612;28;20350;-59
2022/08/20 06:22:32;;;;;;;7.85;2.47;;;22.90;99.90;;;;;;5043650;28;20041;-60
2022/08/20 06:24:59;;;;;;;8.23;2.67;;;23.10;99.90;;;;;;5070601;28;20389;-59
2022/08/20 06:27:25;;;;;;;10.68;3.05;;;23.40;99.90;;;;;;5071146;28;20109;-59
2022/08/20 06:29:52;;;;;;;10.68;2.60;;;23.70;99.90;;;;;;5070686;28;20472;-59
2022/08/20 06:32:20;;;;;;;8.65;2.80;;;24.00;99.90;;;;;;5059646;28;20051;-59
2022/08/20 06:34:45;;;;;;;8.93;2.35;;;24.30;99.90;;;;;;5067492;28;20496;-59
2022/08/20 06:37:22;;;;;;;7.05;2.05;;;24.20;99.90;;;;;;5072986;28;20040;-59
2022/08/20 06:39:49;;;;;;;7.57;2.20;;;24.00;99.90;;;;;;5073643;28;20157;-60
2022/08/20 06:42:14;;;;;;;10.13;2.55;;;24.10;99.90;;;;;;5072325;28;20036;-59
2022/08/20 06:44:40;;;;;;;6.50;1.85;;;24.40;99.90;;;;;;5074005;28;20051;-60
2022/08/20 06:47:05;;;;;;;6.50;2.20;;;24.50;99.90;;;;;;5060694;28;20040;-59
2022/08/20 06:49:35;;;;;;;9.73;2.00;;;24.70;99.90;;;;;;5074826;28;20471;-59
2022/08/20 06:52:05;;;;;;;9.48;2.25;;;24.80;99.90;;;;;;5070366;28;20048;-59
2022/08/20 06:54:33;;;;;;;7.32;2.10;;;24.80;99.90;;;;;;5074156;28;20093;-59
2022/08/20 06:56:59;;;;;;;5.80;1.58;;;25.00;99.90;;;;;;5074392;28;20173;-59
2022/08/20 06:59:25;;;;;;;5.95;1.80;;;25.40;99.90;;;;;;5074738;28;20049;-59
2022/08/20 07:01:55;;;;;;;7.05;1.70;;;25.40;99.90;;;;;;5068693;28;20094;-59
2022/08/20 07:04:24;;;;;;;6.63;1.98;;;25.40;99.90;;;;;;5074256;28;20346;-59
2022/08/20 07:06:56;;;;;;;5.75;1.88;;;25.10;99.90;;;;;;5074019;28;20063;-59
2022/08/20 07:09:22;;;;;;;5.65;1.55;;;24.80;99.90;;;;;;5074073;28;20032;-60
2022/08/20 07:11:48;;;;;;;6.10;1.65;;;24.70;99.90;;;;;;5067319;28;20351;-59
2022/08/20 07:14:16;;;;;;;6.68;1.73;;;25.00;99.90;;;;;;5073271;28;20481;-59
2022/08/20 07:16:42;;;;;;;5.45;1.73;;;25.40;99.90;;;;;;5072694;28;20046;-59
2022/08/20 07:19:08;;;;;;;6.47;2.10;;;25.60;99.90;;;;;;5059648;28;20068;-60
2022/08/20 07:21:34;;;;;;;5.55;1.73;;;25.70;99.90;;;;;;5069698;28;20057;-59
2022/08/20 07:24:00;;;;;;;7.63;1.73;;;25.70;99.40;;;;;;5069379;28;20033;-59
2022/08/20 07:26:25;;;;;;;5.65;1.48;;;25.90;99.20;;;;;;5073599;28;20420;-59
2022/08/20 07:28:51;;;;;;;7.07;1.67;;;25.90;99.00;;;;;;5073844;28;20088;-59
2022/08/20 07:34:02;;;;;;;4.85;1.75;;;25.10;98.70;;;;;;5064198;28;20064;-60
2022/08/20 07:36:28;;;;;;;6.03;1.50;;;24.70;99.20;;;;;;5059278;28;20046;-59
2022/08/20 07:38:54;;;;;;;5.88;1.50;;;24.30;98.90;;;;;;5073624;28;20028;-59
2022/08/20 07:41:20;;;;;;;5.20;1.20;;;24.10;99.20;;;;;;5071831;28;20098;-59
2022/08/20 07:43:47;;;;;;;4.88;1.63;;;24.20;98.60;;;;;;5073115;28;20086;-59
2022/08/20 07:46:16;;;;;;;5.78;1.33;;;24.20;99.00;;;;;;5073293;28;20054;-59
2022/08/20 07:48:45;;;;;;;5.82;1.55;;;24.10;99.20;;;;;;5072268;28;20029;-59
2022/08/20 07:51:13;;;;;;;5.15;1.40;;;24.20;98.50;;;;;;5072400;28;20028;-59
2022/08/20 07:53:40;;;;;;;4.95;1.30;;;24.10;98.60;;;;;;5064056;28;20033;-59
2022/08/20 07:56:09;;;;;;;4.50;1.30;;;24.00;98.90;;;;;;5063802;28;20032;-59
2022/08/20 07:58:37;;;;;;;5.90;1.63;;;24.00;98.80;;;;;;5071931;28;20389;-59
2022/08/20 08:01:05;;;;;;;6.63;1.70;;;24.00;98.60;;;;;;5072169;28;20143;-58
2022/08/20 08:03:31;;;;;;;5.88;1.52;;;24.10;98.80;;;;;;5053744;28;20059;-59
2022/08/20 08:05:57;;;;;;;3.95;1.48;;;24.20;98.90;;;;;;5073380;28;20028;-59
2022/08/20 08:08:27;;;;;;;5.85;1.55;;;24.00;98.90;;;;;;5073273;28;20500;-59
2022/08/20 08:10:58;;;;;;;3.53;1.20;;;24.00;98.70;;;;;;5073042;28;20357;-59
2022/08/20 08:13:26;;;;;;;8.07;1.55;;;24.00;98.60;;;;;;5066510;28;20040;-59
2022/08/20 08:15:56;;;;;;;4.88;1.42;;;24.00;98.50;;;;;;5072811;28;20102;-60
2022/08/20 08:18:26;;;;;;;5.53;1.60;;;24.10;97.90;;;;;;5072789;28;20457;-59
2022/08/20 08:20:53;;;;;;;5.60;1.52;;;24.20;98.00;;;;;;5068392;28;20033;-59
2022/08/20 08:23:21;;;;;;;3.67;1.30;;;24.10;98.10;;;;;;5062538;28;20324;-58
2022/08/20 08:25:48;;;;;;;5.85;1.60;;;23.90;98.10;;;;;;5072089;28;20040;-59
2022/08/20 08:28:13;;;;;;;5.18;1.25;;;23.90;97.90;;;;;;5057483;28;20041;-60
2022/08/20 08:30:41;;;;;;;5.32;1.35;;;23.70;97.00;;;;;;5072517;28;20376;-59
2022/08/20 08:33:27;;;;;;;5.72;1.42;;;23.80;97.10;;;;;;5058363;28;20055;-58
2022/08/20 08:35:54;;;;;;;5.38;1.27;;;23.60;96.30;;;;;;5072422;28;20047;-59
2022/08/20 08:38:24;;;;;;;6.10;1.50;;;23.60;96.80;;;;;;5071896;28;20465;-60
2022/08/20 08:40:53;;;;;;;4.85;1.40;;;23.50;96.10;;;;;;5072366;28;20059;-59
2022/08/20 08:43:24;;;;;;;3.95;1.15;;;23.50;96.20;;;;;;5056971;28;20040;-59
2022/08/20 08:46:03;;;;;;;5.28;1.40;;;23.50;96.20;;;;;;5072125;28;20044;-59
2022/08/20 08:48:42;;;;;;;5.50;1.52;;;23.50;96.40;;;;;;5071675;28;20129;-59
2022/08/20 08:51:11;;;;;;;5.50;1.40;;;23.70;96.30;;;;;;5072372;28;20048;-59
2022/08/20 08:53:53;;;;;;;6.43;1.30;;;23.80;96.30;;;;;;5069405;28;20029;-59
2022/08/20 08:56:22;;;;;;;4.88;1.58;;;23.90;96.70;;;;;;5072511;28;20033;-59
2022/08/20 08:58:48;;;;;;;5.18;1.60;;;24.10;96.60;;;;;;5071818;28;20051;-59
2022/08/20 09:01:17;;;;;;;4.30;1.40;;;24.10;96.90;;;;;;5071153;28;20057;-59
2022/08/20 09:03:47;;;;;;;6.82;1.75;;;24.00;97.00;;;;;;5065860;28;20047;-59
2022/08/20 09:06:17;;;;;;;6.63;1.50;;;23.90;96.90;;;;;;5071730;28;20522;-59
2022/08/20 09:09:00;;;;;;;3.75;1.38;;;23.70;96.10;;;;;;5070489;28;20362;-59
2022/08/20 09:11:27;;;;;;;4.03;1.50;;;23.70;96.30;;;;;;5069511;28;20028;-60
2022/08/20 09:13:53;;;;;;;6.28;1.40;;;23.70;96.10;;;;;;5065533;28;20060;-59
2022/08/20 09:16:21;;;;;;;3.67;1.17;;;23.50;95.80;;;;;;5051777;28;20032;-59
2022/08/20 09:18:48;;;;;;;5.40;1.50;;;23.40;96.40;;;;;;5066810;28;20234;-59
2022/08/20 09:21:14;;;;;;;5.05;1.52;;;23.60;96.90;;;;;;5071038;28;20044;-59
2022/08/20 09:23:40;;;;;;;5.53;1.40;;;23.50;96.90;;;;;;5063714;28;20036;-58
2022/08/20 09:26:06;;;;;;;7.53;1.70;;;23.50;97.50;;;;;;5071454;28;20076;-59
2022/08/20 09:28:32;;;;;;;6.53;1.85;;;23.40;97.40;;;;;;5071465;28;20072;-59
2022/08/20 09:30:59;;;;;;;6.45;1.52;;;23.40;97.40;;;;;;5071226;28;20401;-60
2022/08/20 09:33:25;;;;;;;5.18;1.63;;;23.40;97.50;;;;;;5057773;28;20098;-59
2022/08/20 09:35:51;;;;;;;5.43;1.85;;;23.40;97.30;;;;;;5071596;28;20113;-59
2022/08/20 09:38:17;;;;;;;6.57;1.55;;;23.50;97.30;;;;;;5071220;28;20044;-60
2022/08/20 09:40:43;;;;;;;4.70;1.40;;;23.60;96.80;;;;;;5071535;28;20106;-59
2022/08/20 09:43:09;;;;;;;5.85;1.63;;;23.60;96.70;;;;;;5056286;28;20059;-58
2022/08/20 09:45:35;;;;;;;6.93;1.52;;;23.70;97.00;;;;;;5071334;28;20083;-59
2022/08/20 09:48:01;;;;;;;10.00;2.75;;;23.70;96.90;;;;;;5070992;28;20465;-59
2022/08/20 09:50:30;;;;;;;5.90;1.50;;;23.40;96.30;;;;;;5071509;28;20036;-59
2022/08/20 09:52:59;;;;;;;6.45;1.48;;;23.30;94.90;;;;;;5068882;28;20098;-59
2022/08/20 09:55:47;;;;;;;8.27;1.60;;;23.40;95.30;;;;;;5071375;28;20036;-59
2022/08/20 09:58:21;;;;;;;4.65;1.60;;;23.50;95.40;;;;;;5071657;28;20635;-59
2022/08/20 10:00:47;;;;;;;3.38;1.30;;;23.50;95.70;;;;;;5071275;28;20037;-59
2022/08/20 10:03:13;;;;;;;6.40;1.33;;;23.60;95.60;;;;;;5067259;28;20036;-58
2022/08/20 10:05:38;;;;;;;5.65;1.83;;;23.70;95.00;;;;;;5071402;28;20480;-59
2022/08/20 10:08:06;;;;;;;6.43;1.50;;;23.70;94.60;;;;;;5070657;28;20117;-59
2022/08/20 10:10:31;;;;;;;6.20;1.90;;;23.70;95.00;;;;;;5071198;28;20040;-59
2022/08/20 10:12:57;;;;;;;8.95;1.35;;;23.90;95.50;;;;;;5069492;28;20105;-59
2022/08/20 10:15:23;;;;;;;5.30;1.60;;;23.90;95.10;;;;;;5075289;28;20395;-59
2022/08/20 10:17:48;;;;;;;5.95;1.30;;;23.90;94.40;;;;;;5075186;28;20115;-59
2022/08/20 10:20:14;;;;;;;4.13;1.38;;;23.90;94.60;;;;;;5062228;28;20400;-59
2022/08/20 10:22:40;;;;;;;5.05;1.52;;;24.00;94.30;;;;;;5065797;28;20042;-59
2022/08/20 10:25:06;;;;;;;5.03;1.70;;;24.10;94.40;;;;;;5074598;28;20049;-59
2022/08/20 10:27:32;;;;;;;4.50;1.50;;;24.20;94.30;;;;;;5074869;28;20128;-59
2022/08/20 10:29:58;;;;;;;6.55;1.38;;;24.30;93.90;;;;;;5074547;28;20182;-60
2022/08/20 10:32:24;;;;;;;5.13;1.40;;;24.30;93.20;;;;;;5064447;28;20048;-59
2022/08/20 10:34:50;;;;;;;7.88;1.30;;;24.30;93.10;;;;;;5072043;28;20029;-59
2022/08/20 10:37:18;;;;;;;4.90;1.48;;;24.20;93.10;;;;;;5074641;28;20446;-60
2022/08/20 10:39:44;;;;;;;7.68;1.50;;;24.20;92.90;;;;;;5074651;28;20049;-59
2022/08/20 10:42:10;;;;;;;6.88;1.50;;;24.10;92.60;;;;;;5066129;28;20412;-59
2022/08/20 10:44:36;;;;;;;4.43;1.38;;;24.10;93.00;;;;;;5068355;28;20045;-60
2022/08/20 10:47:28;;;;;;;5.63;1.50;;;24.10;92.80;;;;;;5073326;28;20044;-59
2022/08/20 10:49:56;;;;;;;3.97;1.27;;;24.30;92.80;;;;;;5074513;28;20246;-59
2022/08/20 10:52:22;;;;;;;4.75;1.55;;;24.50;93.20;;;;;;5064478;28;20124;-59
2022/08/20 10:54:49;;;;;;;6.55;1.73;;;24.50;93.30;;;;;;5068242;28;20182;-59
2022/08/20 10:57:19;;;;;;;4.40;1.70;;;24.60;93.20;;;;;;5068626;28;20041;-60
2022/08/20 10:59:47;;;;;;;5.70;1.70;;;24.80;93.00;;;;;;5066827;28;20036;-59
2022/08/20 11:02:13;;;;;;;5.25;1.60;;;24.80;93.10;;;;;;5070355;28;20028;-59
2022/08/20 11:04:42;;;;;;;5.22;1.30;;;24.80;93.30;;;;;;5074250;28;20055;-60
2022/08/20 11:07:14;;;;;;;3.83;1.20;;;24.90;93.10;;;;;;5073991;28;20182;-59
2022/08/20 11:09:40;;;;;;;3.20;1.38;;;25.00;92.50;;;;;;5074460;28;20127;-59
2022/08/20 11:12:06;;;;;;;4.93;1.35;;;25.10;93.10;;;;;;5068805;28;20060;-60
2022/08/20 11:14:32;;;;;;;5.03;1.60;;;25.30;92.90;;;;;;5074128;28;20141;-59
2022/08/20 11:16:59;;;;;;;4.20;1.45;;;25.40;93.00;;;;;;5073458;28;20449;-59
2022/08/20 11:19:24;;;;;;;6.18;1.83;;;25.30;93.00;;;;;;5074046;28;20094;-58
2022/08/20 11:21:50;;;;;;;5.35;1.67;;;25.30;93.30;;;;;;5068615;28;20033;-59
2022/08/20 11:24:17;;;;;;;4.78;1.30;;;25.20;93.40;;;;;;5069722;28;20029;-59
2022/08/20 11:26:46;;;;;;;5.53;1.77;;;25.10;93.40;;;;;;5067406;28;20037;-59
2022/08/20 11:29:12;;;;;;;3.15;1.25;;;25.10;93.30;;;;;;5066725;28;20051;-58
2022/08/20 11:31:37;;;;;;;7.63;1.88;;;25.20;93.40;;;;;;5070297;28;20053;-59
2022/08/20 11:34:03;;;;;;;5.35;1.50;;;25.30;93.20;;;;;;5053753;28;20132;-58
2022/08/20 11:36:29;;;;;;;5.07;1.60;;;25.40;92.80;;;;;;5070622;28;20107;-59
2022/08/20 11:38:54;;;;;;;6.40;1.70;;;25.50;93.00;;;;;;5073742;28;20086;-59
2022/08/20 11:41:20;;;;;;;6.93;1.77;;;25.50;92.60;;;;;;5072747;28;20041;-59
2022/08/20 11:43:46;;;;;;;4.72;1.40;;;25.50;92.60;;;;;;5060321;28;20032;-58
2022/08/20 11:46:11;;;;;;;5.65;1.75;;;25.60;92.60;;;;;;5073700;28;20041;-59
2022/08/20 11:48:37;;;;;;;4.43;1.48;;;25.90;92.80;;;;;;5073236;28;20056;-59
2022/08/20 11:51:03;;;;;;;4.88;1.40;;;25.90;92.50;;;;;;5073415;28;20037;-58
2022/08/20 11:53:29;;;;;;;5.57;1.48;;;25.80;92.30;;;;;;5071283;28;20507;-59
2022/08/20 11:55:55;;;;;;;6.20;1.40;;;25.90;92.30;;;;;;5073540;28;20040;-58
2022/08/20 11:58:21;;;;;;;6.32;1.48;;;26.00;92.10;;;;;;5073197;28;20426;-60
2022/08/20 12:00:47;;;;;;;4.50;1.48;;;26.00;91.90;;;;;;5066037;28;20052;-59
2022/08/20 12:03:13;;;;;;;8.23;1.90;;;26.00;92.20;;;;;;5065533;28;20079;-59
2022/08/20 12:05:41;;;;;;;5.55;1.95;;;26.20;91.80;;;;;;5072751;28;20040;-59
2022/08/20 12:08:08;;;;;;;5.50;1.23;;;26.10;91.90;;;;;;5072678;28;20476;-59
2022/08/20 12:10:34;;;;;;;4.70;1.45;;;26.20;92.20;;;;;;5071782;28;20063;-58
2022/08/20 12:13:00;;;;;;;4.60;1.40;;;26.10;91.80;;;;;;5068230;28;20025;-58
2022/08/20 12:15:26;;;;;;;5.32;1.77;;;26.00;91.50;;;;;;5072778;28;20083;-60
2022/08/20 12:17:52;;;;;;;6.13;1.75;;;26.00;91.10;;;;;;5072902;28;20064;-59
2022/08/20 12:20:18;;;;;;;4.93;1.33;;;26.10;91.40;;;;;;5072901;28;20060;-60
2022/08/20 12:22:44;;;;;;;6.93;1.67;;;26.10;91.40;;;;;;5066050;28;20037;-59
2022/08/20 12:25:10;;;;;;;4.72;1.67;;;26.00;91.60;;;;;;5071295;28;20067;-59
2022/08/20 12:27:37;;;;;;;4.72;1.40;;;25.80;91.90;;;;;;5072574;28;20098;-61
2022/08/20 12:30:22;;;;;;;8.45;1.70;;;25.70;92.00;;;;;;5072523;28;20041;-58
2022/08/20 12:32:48;;;;;;;5.78;1.75;;;25.60;91.80;;;;;;5060498;28;20076;-59
2022/08/20 12:35:15;;;;;;;6.18;1.58;;;25.40;91.80;;;;;;5072292;28;20072;-59
2022/08/20 12:37:42;;;;;;;6.30;1.80;;;25.50;91.80;;;;;;5072254;28;20098;-59
2022/08/20 12:40:12;;;;;;;6.80;2.00;;;25.60;91.70;;;;;;5072328;28;20127;-59
2022/08/20 12:42:38;;;;;;;4.70;1.50;;;25.50;91.90;;;;;;5060951;28;20037;-58
2022/08/20 12:45:04;;;;;;;9.18;1.67;;;25.40;91.90;;;;;;5069722;28;20040;-59
2022/08/20 12:47:32;;;;;;;6.47;1.40;;;25.00;92.00;;;;;;5071895;28;20040;-59
2022/08/20 12:50:07;;;;;;;6.78;1.52;;;24.80;92.20;;;;;;5071748;28;20522;-58
2022/08/20 12:52:33;;;;;;;4.72;1.60;;;24.70;92.70;;;;;;5062300;28;20091;-58
2022/08/20 12:54:59;;;;;;;6.15;1.70;;;24.60;92.30;;;;;;5067485;28;20453;-58